createdAt,value
2019-05-22T00:00:51.881Z,24.20
2019-05-22T00:03:22.855Z,22.23
2019-05-22T00:05:53.733Z,22.77
2019-05-22T00:08:23.096Z,22.07
2019-05-22T00:10:54.439Z,18.20
2019-05-22T00:13:25.855Z,20.97
2019-05-22T00:15:57.049Z,19.57
2019-05-22T00:18:28.106Z,19.67
2019-05-22T00:20:57.931Z,17.83
2019-05-22T00:23:28.625Z,16.63
2019-05-22T00:25:57.831Z,19.07
2019-05-22T00:28:28.211Z,16.17
2019-05-22T00:30:59.094Z,16.20
2019-05-22T00:33:30.006Z,13.80
2019-05-22T00:36:00.742Z,16.13
2019-05-22T00:38:31.647Z,15.73
2019-05-22T00:41:03.016Z,15.63
2019-05-22T00:43:39.776Z,14.67
2019-05-22T00:46:09.850Z,13.83
2019-05-22T00:48:41.140Z,17.37
2019-05-22T00:51:12.993Z,15.43
2019-05-22T00:53:49.915Z,14.83
2019-05-22T00:56:39.026Z,16.13
2019-05-22T00:59:18.710Z,14.60
2019-05-22T01:01:53.166Z,19.43
2019-05-22T01:04:32.459Z,19.90
2019-05-22T01:07:05.010Z,23.03
2019-05-22T01:09:46.591Z,23.20
2019-05-22T01:12:43.294Z,22.10
2019-05-22T01:15:18.534Z,25.33
2019-05-22T01:17:49.433Z,27.50
2019-05-22T01:20:21.698Z,26.67
2019-05-22T01:22:52.755Z,28.83
2019-05-22T01:25:22.737Z,27.57
2019-05-22T01:27:52.501Z,30.77
2019-05-22T01:30:24.357Z,27.47
2019-05-22T01:32:58.625Z,29.50
2019-05-22T01:35:30.819Z,29.23
2019-05-22T01:38:00.107Z,29.27
2019-05-22T01:40:44.571Z,30.17
2019-05-22T01:43:18.800Z,32.53
2019-05-22T01:45:53.703Z,31.80
2019-05-22T01:48:31.795Z,36.90
2019-05-22T01:51:02.826Z,32.83
2019-05-22T01:53:36.678Z,36.27
2019-05-22T01:56:10.572Z,36.53
2019-05-22T01:58:41.512Z,35.03
2019-05-22T02:01:16.751Z,37.43
2019-05-22T02:03:48.507Z,34.70
2019-05-22T02:06:19.570Z,31.27
2019-05-22T02:08:51.912Z,30.83
2019-05-22T02:11:23.381Z,31.10
2019-05-22T02:13:58.973Z,30.50
2019-05-22T02:16:30.627Z,30.77
2019-05-22T02:19:00.650Z,28.23
2019-05-22T02:21:30.042Z,31.23
2019-05-22T02:23:59.149Z,32.20
2019-05-22T02:26:29.006Z,28.57
2019-05-22T02:28:58.811Z,29.60
2019-05-22T02:31:29.784Z,32.63
2019-05-22T02:34:02.859Z,34.33
2019-05-22T02:36:34.828Z,32.60
2019-05-22T02:39:08.732Z,34.90
2019-05-22T02:41:59.313Z,34.70
2019-05-22T02:44:29.975Z,34.47
2019-05-22T02:47:17.138Z,37.00
2019-05-22T02:49:32.726Z,33.20
2019-05-22T02:52:02.728Z,31.63
2019-05-22T02:54:35.972Z,36.40
2019-05-22T02:57:07.050Z,33.83
2019-05-22T02:59:36.658Z,33.77
2019-05-22T03:02:06.014Z,36.93
2019-05-22T03:04:59.647Z,39.13
2019-05-22T03:07:31.253Z,39.27
2019-05-22T03:10:01.789Z,36.13
2019-05-22T03:12:33.069Z,37.57
2019-05-22T03:15:02.488Z,39.87
2019-05-22T03:17:33.623Z,40.27
2019-05-22T03:20:07.709Z,39.70
2019-05-22T03:23:06.730Z,42.80
2019-05-22T03:25:36.982Z,45.20
2019-05-22T03:28:07.835Z,42.30
2019-05-22T03:30:40.624Z,43.83
2019-05-22T03:33:11.321Z,47.00
2019-05-22T03:35:47.175Z,46.47
2019-05-22T03:38:18.121Z,44.80
2019-05-22T03:40:48.886Z,44.00
2019-05-22T03:43:25.082Z,45.60
2019-05-22T03:45:56.522Z,43.73
2019-05-22T03:48:29.579Z,44.33
2019-05-22T03:51:07.495Z,40.93
2019-05-22T03:53:37.255Z,41.90
2019-05-22T03:56:06.631Z,38.00
2019-05-22T03:58:36.173Z,41.47
2019-05-22T04:01:06.660Z,40.70
2019-05-22T04:03:35.902Z,43.90
2019-05-22T04:06:06.300Z,36.87
2019-05-22T04:08:35.472Z,36.80
2019-05-22T04:11:08.014Z,36.40
2019-05-22T04:13:37.671Z,40.90
2019-05-22T04:16:10.198Z,34.53
2019-05-22T04:18:39.309Z,37.10
2019-05-22T04:21:08.872Z,31.80
2019-05-22T04:23:39.388Z,36.80
2019-05-22T04:26:10.919Z,35.93
2019-05-22T04:28:53.025Z,35.80
2019-05-22T04:31:40.312Z,35.43
2019-05-22T04:34:10.511Z,33.57
2019-05-22T04:36:41.181Z,34.50
2019-05-22T04:39:21.533Z,33.37
2019-05-22T04:41:51.356Z,34.13
2019-05-22T04:44:20.501Z,36.50
2019-05-22T04:46:50.263Z,34.63
2019-05-22T04:49:19.439Z,39.57
2019-05-22T04:51:49.386Z,31.73
2019-05-22T04:54:18.494Z,33.00
2019-05-22T04:56:47.876Z,34.03
2019-05-22T04:59:17.355Z,32.27
2019-05-22T05:01:46.679Z,37.03
2019-05-22T05:04:17.264Z,30.73
2019-05-22T05:06:46.543Z,31.73
2019-05-22T05:09:16.227Z,31.70
2019-05-22T05:11:45.767Z,31.80
2019-05-22T05:14:14.922Z,32.17
2019-05-22T05:16:44.433Z,28.60
2019-05-22T05:19:13.830Z,27.10
2019-05-22T05:21:43.073Z,31.57
2019-05-22T05:24:12.542Z,30.30
2019-05-22T05:26:42.019Z,28.10
2019-05-22T05:29:24.896Z,27.40
2019-05-22T05:31:54.733Z,25.93
2019-05-22T05:34:38.389Z,30.03
2019-05-22T05:37:10.318Z,29.50
2019-05-22T05:39:44.087Z,26.67
2019-05-22T05:42:13.206Z,26.60
2019-05-22T05:44:42.619Z,24.90
2019-05-22T05:47:12.124Z,25.47
2019-05-22T05:49:41.748Z,24.57
2019-05-22T05:52:12.115Z,24.57
2019-05-22T05:54:41.729Z,25.63
2019-05-22T05:57:37.993Z,28.67
2019-05-22T06:00:28.102Z,25.40
2019-05-22T06:03:19.886Z,29.13
2019-05-22T06:05:49.872Z,28.50
2019-05-22T06:08:19.316Z,26.83
2019-05-22T06:11:15.428Z,27.87
2019-05-22T06:13:45.086Z,26.13
2019-05-22T06:16:20.831Z,30.57
2019-05-22T06:18:51.702Z,28.30
2019-05-22T06:21:22.117Z,30.33
2019-05-22T06:24:23.515Z,26.67
2019-05-22T06:27:03.210Z,26.60
2019-05-22T06:29:38.753Z,26.93
2019-05-22T06:32:27.030Z,28.70
2019-05-22T06:34:59.660Z,27.90
2019-05-22T06:37:42.669Z,25.57
2019-05-22T06:40:11.874Z,25.47
2019-05-22T06:42:44.667Z,24.03
2019-05-22T06:45:14.109Z,24.57
2019-05-22T06:47:43.593Z,25.93
2019-05-22T06:50:12.793Z,27.60
2019-05-22T06:52:41.885Z,26.33
2019-05-22T06:55:11.003Z,25.57
2019-05-22T06:57:40.417Z,26.67
2019-05-22T07:00:15.235Z,22.20
2019-05-22T07:02:44.462Z,24.97
2019-05-22T07:05:14.257Z,20.97
2019-05-22T07:07:43.972Z,23.67
2019-05-22T07:10:13.549Z,24.13
2019-05-22T07:12:43.043Z,23.17
2019-05-22T07:15:22.389Z,21.07
2019-05-22T07:17:52.747Z,21.67
2019-05-22T07:20:24.471Z,22.77
2019-05-22T07:22:53.897Z,20.83
2019-05-22T07:25:30.258Z,21.23
2019-05-22T07:28:00.596Z,18.80
2019-05-22T07:30:30.372Z,18.60
2019-05-22T07:32:59.758Z,20.57
2019-05-22T07:35:44.105Z,20.23
2019-05-22T07:37:59.969Z,19.93
2019-05-22T07:40:29.482Z,16.93
2019-05-22T07:42:58.656Z,18.30
2019-05-22T07:45:29.446Z,15.03
2019-05-22T07:48:02.559Z,16.93
2019-05-22T07:50:33.593Z,16.43
2019-05-22T07:53:02.890Z,15.73
2019-05-22T07:55:32.950Z,17.20
2019-05-22T07:58:08.076Z,17.30
2019-05-22T08:00:37.841Z,17.67
2019-05-22T08:03:08.309Z,20.00
2019-05-22T08:05:40.585Z,16.73
2019-05-22T08:08:10.692Z,16.23
2019-05-22T08:10:42.168Z,16.80
2019-05-22T08:13:11.650Z,18.87
2019-05-22T08:15:40.837Z,17.03
2019-05-22T08:18:10.261Z,17.67
2019-05-22T08:20:40.131Z,19.57
2019-05-22T08:23:09.614Z,16.73
2019-05-22T08:25:43.077Z,21.00
2019-05-22T08:28:23.316Z,20.60
2019-05-22T08:30:53.115Z,18.87
2019-05-22T08:33:24.070Z,15.53
2019-05-22T08:35:53.286Z,19.37
2019-05-22T08:38:27.991Z,17.03
2019-05-22T08:40:59.382Z,18.30
2019-05-22T08:43:30.115Z,18.07
2019-05-22T08:45:59.468Z,18.70
2019-05-22T08:48:35.485Z,17.53
2019-05-22T08:51:20.969Z,18.13
2019-05-22T08:53:52.315Z,18.93
2019-05-22T08:56:23.906Z,16.70
2019-05-22T08:58:57.730Z,19.77
2019-05-22T09:01:30.263Z,15.90
2019-05-22T09:03:59.523Z,16.80
2019-05-22T09:06:33.988Z,14.73
2019-05-22T09:09:05.291Z,15.30
2019-05-22T09:11:34.395Z,15.40
2019-05-22T09:14:03.584Z,15.23
2019-05-22T09:16:33.218Z,12.27
2019-05-22T09:19:02.408Z,15.10
2019-05-22T09:21:32.200Z,14.23
2019-05-22T09:24:02.156Z,14.23
2019-05-22T09:26:37.232Z,14.40
2019-05-22T09:29:07.526Z,16.43
2019-05-22T09:31:44.411Z,14.60
2019-05-22T09:34:13.029Z,24.40
2019-05-22T09:36:43.180Z,14.70
2019-05-22T09:39:17.877Z,17.10
2019-05-22T09:41:46.929Z,20.27
2019-05-22T09:44:17.123Z,17.70
2019-05-22T09:46:46.656Z,16.83
2019-05-22T09:49:16.001Z,13.33
2019-05-22T09:51:46.030Z,14.93
2019-05-22T09:54:15.230Z,16.83
2019-05-22T09:56:45.489Z,15.60
2019-05-22T09:59:14.766Z,16.23
2019-05-22T10:01:44.777Z,14.13
2019-05-22T10:04:14.088Z,13.00
2019-05-22T10:06:43.238Z,18.60
2019-05-22T10:09:12.336Z,13.77
2019-05-22T10:11:42.863Z,16.93
2019-05-22T10:14:14.433Z,12.50
2019-05-22T10:16:50.685Z,14.77
2019-05-22T10:19:20.424Z,12.27
2019-05-22T10:21:50.523Z,14.40
2019-05-22T10:24:22.320Z,12.70
2019-05-22T10:26:51.533Z,13.87
2019-05-22T10:29:22.504Z,19.77
2019-05-22T10:31:54.235Z,18.50
2019-05-22T10:34:25.409Z,16.07
2019-05-22T10:37:00.099Z,12.23
2019-05-22T10:39:34.813Z,14.47
2019-05-22T10:42:04.270Z,13.07
2019-05-22T10:44:36.668Z,13.30
2019-05-22T10:47:06.751Z,15.00
2019-05-22T10:49:36.075Z,15.43
2019-05-22T10:52:05.425Z,13.27
2019-05-22T10:54:34.570Z,11.90
2019-05-22T10:57:04.873Z,12.27
2019-05-22T10:59:34.092Z,13.27
2019-05-22T11:02:03.906Z,13.70
2019-05-22T11:04:34.344Z,14.60
2019-05-22T11:07:04.526Z,12.83
2019-05-22T11:09:33.950Z,12.97
2019-05-22T11:12:04.870Z,13.77
2019-05-22T11:14:34.764Z,11.67
2019-05-22T11:17:11.063Z,15.80
2019-05-22T11:19:40.547Z,13.63
2019-05-22T11:22:11.822Z,13.17
2019-05-22T11:24:42.820Z,12.10
2019-05-22T11:27:13.954Z,12.03
2019-05-22T11:29:47.678Z,13.37
2019-05-22T11:32:21.948Z,12.03
2019-05-22T11:35:09.601Z,11.40
2019-05-22T11:37:42.666Z,10.70
2019-05-22T11:40:23.079Z,12.00
2019-05-22T11:42:53.641Z,11.33
2019-05-22T11:45:31.246Z,9.13
2019-05-22T11:48:01.067Z,10.67
2019-05-22T11:50:31.293Z,10.47
2019-05-22T11:53:00.606Z,10.70
2019-05-22T11:55:43.881Z,11.07
2019-05-22T11:58:03.811Z,10.97
2019-05-22T12:00:33.191Z,13.83
2019-05-22T12:03:03.114Z,19.77
2019-05-22T12:05:34.815Z,13.43
2019-05-22T12:08:05.567Z,12.13
2019-05-22T12:10:35.844Z,12.47
2019-05-22T12:13:07.784Z,13.00
2019-05-22T12:15:36.954Z,10.13
2019-05-22T12:18:06.810Z,14.37
2019-05-22T12:20:36.306Z,13.17
2019-05-22T12:23:06.021Z,13.60
2019-05-22T12:25:35.607Z,14.93
2019-05-22T12:28:05.219Z,13.60
2019-05-22T12:30:35.547Z,12.83
2019-05-22T12:33:12.553Z,19.63
2019-05-22T12:35:36.331Z,13.87
2019-05-22T12:38:07.522Z,15.13
2019-05-22T12:40:36.973Z,12.73
2019-05-22T12:43:06.557Z,13.47
2019-05-22T12:45:36.172Z,13.43
2019-05-22T12:48:06.937Z,11.97
2019-05-22T12:50:36.927Z,11.37
2019-05-22T12:53:11.094Z,13.13
2019-05-22T12:55:41.721Z,15.73
2019-05-22T12:58:11.126Z,14.57
2019-05-22T13:00:40.639Z,15.83
2019-05-22T13:03:11.685Z,15.10
2019-05-22T13:05:40.882Z,18.30
2019-05-22T13:08:11.758Z,16.27
2019-05-22T13:10:40.874Z,16.70
2019-05-22T13:13:10.827Z,16.33
2019-05-22T13:15:40.018Z,15.70
2019-05-22T13:18:10.830Z,18.53
2019-05-22T13:20:45.003Z,16.73
2019-05-22T13:23:15.482Z,16.30
2019-05-22T13:25:44.673Z,17.40
2019-05-22T13:28:17.845Z,16.50
2019-05-22T13:30:51.269Z,17.03
2019-05-22T13:33:22.518Z,18.97
2019-05-22T13:35:51.920Z,19.30
2019-05-22T13:38:21.615Z,19.43
2019-05-22T13:40:50.941Z,22.97
2019-05-22T13:43:20.122Z,19.13
2019-05-22T13:45:50.316Z,22.13
2019-05-22T13:48:19.682Z,18.83
2019-05-22T13:50:48.897Z,19.33
2019-05-22T13:53:19.822Z,16.73
2019-05-22T13:55:48.942Z,17.00
2019-05-22T13:58:20.576Z,19.27
2019-05-22T14:00:50.331Z,17.37
2019-05-22T14:03:20.775Z,22.20
2019-05-22T14:05:50.082Z,22.77
2019-05-22T14:08:19.859Z,24.23
2019-05-22T14:10:50.322Z,19.83
2019-05-22T14:13:20.203Z,19.97
2019-05-22T14:15:56.211Z,24.77
2019-05-22T14:18:21.821Z,24.30
2019-05-22T14:20:51.398Z,21.77
2019-05-22T14:23:21.111Z,23.27
2019-05-22T14:25:50.859Z,26.13
2019-05-22T14:28:21.541Z,27.23
2019-05-22T14:30:51.200Z,22.43
2019-05-22T14:33:20.434Z,18.90
2019-05-22T14:35:52.520Z,19.07
2019-05-22T14:38:22.415Z,19.50
2019-05-22T14:40:52.310Z,17.80
2019-05-22T14:43:21.902Z,20.13
2019-05-22T14:45:51.301Z,17.60
2019-05-22T14:48:20.865Z,17.03
2019-05-22T14:50:49.993Z,14.47
2019-05-22T14:53:19.188Z,16.40
2019-05-22T14:55:50.022Z,15.10
2019-05-22T14:58:19.280Z,18.87
2019-05-22T15:00:48.742Z,17.90
2019-05-22T15:03:18.320Z,16.93
2019-05-22T15:05:47.657Z,15.20
2019-05-22T15:08:17.090Z,16.73
2019-05-22T15:10:47.617Z,15.93
2019-05-22T15:13:17.150Z,17.87
2019-05-22T15:15:46.918Z,19.53
2019-05-22T15:18:18.753Z,16.70
2019-05-22T15:20:49.515Z,17.53
2019-05-22T15:23:18.934Z,17.87
2019-05-22T15:25:48.701Z,17.43
2019-05-22T15:28:17.804Z,14.70
2019-05-22T15:30:47.179Z,14.90
2019-05-22T15:33:17.317Z,17.37
2019-05-22T15:35:46.437Z,20.60
2019-05-22T15:38:16.267Z,14.20
2019-05-22T15:40:45.718Z,17.87
2019-05-22T15:43:16.792Z,13.50
2019-05-22T15:45:45.976Z,11.87
2019-05-22T15:48:32.976Z,11.17
2019-05-22T15:51:05.995Z,11.13
2019-05-22T15:53:38.869Z,12.97
2019-05-22T15:56:09.646Z,9.90
2019-05-22T15:58:41.230Z,10.60
2019-05-22T16:01:11.323Z,11.23
2019-05-22T16:03:42.365Z,10.67
2019-05-22T16:06:11.894Z,13.60
2019-05-22T16:08:42.851Z,12.27
2019-05-22T16:11:14.707Z,14.57
2019-05-22T16:13:46.366Z,13.57
2019-05-22T16:16:17.251Z,13.57
2019-05-22T16:18:47.810Z,14.37
2019-05-22T16:21:17.975Z,12.27
2019-05-22T16:23:47.409Z,16.60
2019-05-22T16:26:17.973Z,14.30
2019-05-22T16:28:48.730Z,12.73
2019-05-22T16:31:19.420Z,11.87
2019-05-22T16:33:50.896Z,11.27
2019-05-22T16:36:20.394Z,12.20
2019-05-22T16:38:51.090Z,20.23
2019-05-22T16:41:20.661Z,22.33
2019-05-22T16:43:50.562Z,20.93
2019-05-22T16:46:21.793Z,13.90
2019-05-22T16:48:51.955Z,11.47
2019-05-22T16:51:22.379Z,10.50
2019-05-22T16:53:53.241Z,10.03
2019-05-22T16:56:24.852Z,13.30
2019-05-22T16:58:54.836Z,10.77
2019-05-22T17:01:26.007Z,10.03
2019-05-22T17:03:56.610Z,11.70
2019-05-22T17:06:26.185Z,11.13
2019-05-22T17:08:57.934Z,13.97
2019-05-22T17:11:28.451Z,10.70
2019-05-22T17:14:03.211Z,12.03
2019-05-22T17:16:34.824Z,15.80
2019-05-22T17:19:23.365Z,10.13
2019-05-22T17:21:35.922Z,12.97
2019-05-22T17:24:05.757Z,12.10
2019-05-22T17:26:35.075Z,17.23
2019-05-22T17:29:04.477Z,10.63
2019-05-22T17:31:34.950Z,9.87
2019-05-22T17:34:04.796Z,11.77
2019-05-22T17:36:34.356Z,10.67
2019-05-22T17:39:06.251Z,9.63
2019-05-22T17:41:36.586Z,8.40
2019-05-22T17:44:06.362Z,9.07
2019-05-22T17:46:35.961Z,9.00
2019-05-22T17:49:06.511Z,9.03
2019-05-22T17:51:37.916Z,8.83
2019-05-22T17:54:09.234Z,8.57
2019-05-22T17:56:39.915Z,7.90
2019-05-22T17:59:09.170Z,7.97
2019-05-22T18:01:38.600Z,7.67
2019-05-22T18:04:08.012Z,7.93
2019-05-22T18:06:37.131Z,7.70
2019-05-22T18:09:07.945Z,8.27
2019-05-22T18:11:37.135Z,8.30
2019-05-22T18:14:07.549Z,9.07
2019-05-22T18:16:37.068Z,8.33
2019-05-22T18:19:07.315Z,9.10
2019-05-22T18:21:37.038Z,14.20
2019-05-22T18:24:06.890Z,16.43
2019-05-22T18:26:36.093Z,9.67
2019-05-22T18:29:05.392Z,9.73
2019-05-22T18:31:35.017Z,10.27
2019-05-22T18:34:04.159Z,8.67
2019-05-22T18:37:09.810Z,9.43
2019-05-22T18:39:39.999Z,10.90
2019-05-22T18:42:09.497Z,10.00
2019-05-22T18:44:39.142Z,11.43
2019-05-22T18:47:08.604Z,9.67
2019-05-22T18:49:37.815Z,8.37
2019-05-22T18:52:10.040Z,9.33
2019-05-22T18:54:39.568Z,8.77
2019-05-22T18:57:08.867Z,9.00
2019-05-22T18:59:38.318Z,7.90
2019-05-22T19:02:09.116Z,8.40
2019-05-22T19:04:39.251Z,8.33
2019-05-22T19:07:08.737Z,8.17
2019-05-22T19:09:38.233Z,8.03
2019-05-22T19:12:07.559Z,9.53
2019-05-22T19:14:37.262Z,9.77
2019-05-22T19:17:07.083Z,7.83
2019-05-22T19:19:37.051Z,7.77
2019-05-22T19:22:06.511Z,7.13
2019-05-22T19:24:36.088Z,9.27
2019-05-22T19:27:05.400Z,6.37
2019-05-22T19:29:35.728Z,10.93
2019-05-22T19:32:05.030Z,6.67
2019-05-22T19:34:34.363Z,8.23
2019-05-22T19:37:04.151Z,8.63
2019-05-22T19:39:34.264Z,8.80
2019-05-22T19:42:05.764Z,8.47
2019-05-22T19:44:35.999Z,9.00
2019-05-22T19:47:07.278Z,7.50
2019-05-22T19:49:36.887Z,8.97
2019-05-22T19:52:07.732Z,7.37
2019-05-22T19:54:38.157Z,7.40
2019-05-22T19:57:09.411Z,8.07
2019-05-22T19:59:39.226Z,7.00
2019-05-22T20:02:10.118Z,6.50
2019-05-22T20:04:40.020Z,6.70
2019-05-22T20:07:11.170Z,6.23
2019-05-22T20:09:41.965Z,6.70
2019-05-22T20:12:12.922Z,8.10
2019-05-22T20:14:42.409Z,8.00
2019-05-22T20:17:12.724Z,7.30
2019-05-22T20:19:41.934Z,7.07
2019-05-22T20:22:12.957Z,9.13
2019-05-22T20:24:45.228Z,7.67
2019-05-22T20:27:15.055Z,6.83
2019-05-22T20:29:44.229Z,6.67
2019-05-22T20:32:14.162Z,6.90
2019-05-22T20:37:47.300Z,6.50
2019-05-22T20:40:29.359Z,6.10
2019-05-22T20:43:11.054Z,6.83
2019-05-22T20:45:42.928Z,7.27
2019-05-22T20:48:17.651Z,6.17
2019-05-22T20:50:47.411Z,5.90
2019-05-22T20:53:17.504Z,14.60
2019-05-22T20:55:48.955Z,17.83
2019-05-22T20:58:19.896Z,7.60
2019-05-22T21:00:49.891Z,6.50
2019-05-22T21:03:21.576Z,6.90
2019-05-22T21:05:51.678Z,6.17
2019-05-22T21:08:22.221Z,6.77
2019-05-22T21:10:52.611Z,5.80
2019-05-22T21:13:22.126Z,7.93
2019-05-22T21:15:52.928Z,6.10
2019-05-22T21:18:25.176Z,6.80
2019-05-22T21:20:55.603Z,7.57
2019-05-22T21:23:25.436Z,6.20
2019-05-22T21:25:55.560Z,6.03
2019-05-22T21:28:26.202Z,8.40
2019-05-22T21:30:57.203Z,7.27
2019-05-22T21:33:26.543Z,7.50
2019-05-22T21:35:55.800Z,5.90
2019-05-22T21:38:27.165Z,6.77
2019-05-22T21:40:57.940Z,7.07
2019-05-22T21:43:28.814Z,6.33
2019-05-22T21:45:58.484Z,7.17
2019-05-22T21:48:30.082Z,6.80
2019-05-22T21:50:59.598Z,7.20
2019-05-22T21:53:29.295Z,6.50
2019-05-22T21:56:04.972Z,6.27
2019-05-22T21:58:30.151Z,7.27
2019-05-22T22:01:03.163Z,7.03
2019-05-22T22:03:37.288Z,6.63
2019-05-22T22:06:06.443Z,6.07
2019-05-22T22:08:36.579Z,6.83
2019-05-22T22:11:06.330Z,7.03
2019-05-22T22:13:37.454Z,7.20
2019-05-22T22:16:06.853Z,7.30
2019-05-22T22:18:38.308Z,6.20
2019-05-22T22:21:08.111Z,6.43
2019-05-22T22:23:39.238Z,7.83
2019-05-22T22:26:24.225Z,7.97
2019-05-22T22:28:40.544Z,7.37
2019-05-22T22:31:11.775Z,6.37
2019-05-22T22:33:41.395Z,6.30
2019-05-22T22:36:11.931Z,6.87
2019-05-22T22:38:43.114Z,6.37
2019-05-22T22:41:14.210Z,6.77
2019-05-22T22:43:45.911Z,9.70
2019-05-22T22:46:27.727Z,8.53
2019-05-22T22:48:59.846Z,7.57
2019-05-22T22:51:30.521Z,6.30
2019-05-22T22:54:00.550Z,6.30
2019-05-22T22:56:29.804Z,6.43
2019-05-22T22:58:59.477Z,8.37
2019-05-22T23:01:33.652Z,9.00
2019-05-22T23:04:06.573Z,6.73
2019-05-22T23:06:36.625Z,7.23
2019-05-22T23:09:08.158Z,8.10
2019-05-22T23:11:39.595Z,8.33
2019-05-22T23:14:09.205Z,8.13
2019-05-22T23:16:40.998Z,7.87
2019-05-22T23:19:14.785Z,6.57
2019-05-22T23:21:44.707Z,8.50
2019-05-22T23:24:14.615Z,8.03
2019-05-22T23:26:44.928Z,7.67
2019-05-22T23:29:14.449Z,7.77
2019-05-22T23:31:44.470Z,6.00
2019-05-22T23:34:13.960Z,9.47
2019-05-22T23:36:45.428Z,6.83
2019-05-22T23:39:17.394Z,8.00
2019-05-22T23:41:47.509Z,9.00
2019-05-22T23:44:19.044Z,7.17
2019-05-22T23:46:48.866Z,6.80
2019-05-22T23:49:18.282Z,6.40
2019-05-22T23:51:48.813Z,6.90
2019-05-22T23:54:18.700Z,6.80
2019-05-22T23:56:49.847Z,7.30
2019-05-22T23:59:19.787Z,8.03
